createdAt,value
2019-01-29T00:01:48.728Z,98868.84
2019-01-29T00:04:19.800Z,98871.87
2019-01-29T00:06:50.906Z,98874.50
2019-01-29T00:09:21.676Z,98877.45
2019-01-29T00:11:52.597Z,98877.70
2019-01-29T00:14:23.434Z,98878.50
2019-01-29T00:16:54.552Z,98874.48
2019-01-29T00:19:25.576Z,98880.39
2019-01-29T00:21:56.411Z,98878.83
2019-01-29T00:24:27.942Z,98879.84
2019-01-29T00:26:59.819Z,98883.86
2019-01-29T00:29:30.685Z,98888.25
2019-01-29T00:32:01.795Z,98886.63
2019-01-29T00:34:32.893Z,98886.45
2019-01-29T00:37:04.047Z,98889.56
2019-01-29T00:39:34.871Z,98896.87
2019-01-29T00:42:05.947Z,98894.31
2019-01-29T00:44:37.030Z,98900.56
2019-01-29T00:47:07.905Z,98902.38
2019-01-29T00:49:39.085Z,98906.58
2019-01-29T00:52:10.137Z,98903.81
2019-01-29T00:54:41.047Z,98910.43
2019-01-29T00:57:12.115Z,98907.45
2019-01-29T00:59:43.109Z,98911.13
2019-01-29T01:02:14.006Z,98915.80
2019-01-29T01:04:45.101Z,98915.01
2019-01-29T01:07:16.102Z,98918.37
2019-01-29T01:09:47.164Z,98915.67
2019-01-29T01:12:18.096Z,98912.14
2019-01-29T01:14:49.159Z,98925.97
2019-01-29T01:17:20.080Z,98925.17
2019-01-29T01:19:51.168Z,98929.68
2019-01-29T01:22:22.081Z,98943.94
2019-01-29T01:24:52.927Z,98936.08
2019-01-29T01:27:24.255Z,98946.54
2019-01-29T01:29:55.084Z,98955.28
2019-01-29T01:32:25.863Z,98958.07
2019-01-29T01:34:56.718Z,98961.86
2019-01-29T01:37:28.089Z,98966.97
2019-01-29T01:39:58.868Z,98971.58
2019-01-29T01:42:29.922Z,98974.36
2019-01-29T01:45:01.214Z,98979.38
2019-01-29T01:47:32.225Z,98971.83
2019-01-29T01:50:03.191Z,98982.30
2019-01-29T01:52:34.531Z,98981.78
2019-01-29T01:55:06.789Z,98983.47
2019-01-29T01:57:37.959Z,98985.13
2019-01-29T02:00:14.082Z,98989.09
2019-01-29T02:02:45.049Z,98992.16
2019-01-29T02:05:16.031Z,98995.33
2019-01-29T02:07:47.234Z,98993.73
2019-01-29T02:10:26.913Z,98994.56
2019-01-29T02:12:57.867Z,98994.39
2019-01-29T02:15:28.820Z,98996.61
2019-01-29T02:17:59.826Z,98995.98
2019-01-29T02:20:30.923Z,98997.31
2019-01-29T02:23:07.720Z,99006.52
2019-01-29T02:25:34.559Z,99004.46
2019-01-29T02:28:05.727Z,99003.67
2019-01-29T02:30:37.783Z,98997.22
2019-01-29T02:33:09.306Z,99007.64
2019-01-29T02:35:40.247Z,99003.08
2019-01-29T02:38:11.870Z,99001.95
2019-01-29T02:40:43.277Z,99007.30
2019-01-29T02:43:14.542Z,99002.67
2019-01-29T02:45:45.596Z,99000.95
2019-01-29T02:48:16.680Z,99003.08
2019-01-29T02:50:48.124Z,99009.09
2019-01-29T02:54:12.589Z,99004.80
2019-01-29T03:00:11.190Z,98997.55
2019-01-29T03:06:06.654Z,99003.41
2019-01-29T03:08:37.763Z,99003.86
2019-01-29T03:11:09.406Z,99000.84
2019-01-29T03:16:29.233Z,99003.41
2019-01-29T03:19:00.593Z,99004.13
2019-01-29T03:21:31.969Z,99004.61
2019-01-29T03:24:03.674Z,99005.19
2019-01-29T03:26:35.162Z,99010.75
2019-01-29T03:29:06.284Z,99003.62
2019-01-29T03:31:37.821Z,99012.87
2019-01-29T03:34:09.363Z,99006.27
2019-01-29T03:36:40.325Z,99017.77
2019-01-29T03:39:11.657Z,99020.18
2019-01-29T03:41:45.823Z,99022.23
2019-01-29T03:44:17.751Z,99027.87
2019-01-29T03:46:48.986Z,99035.06
2019-01-29T03:49:20.407Z,99034.16
2019-01-29T03:51:51.477Z,99035.50
2019-01-29T03:54:23.122Z,99038.96
2019-01-29T03:56:54.545Z,99035.78
2019-01-29T03:59:26.036Z,99039.56
2019-01-29T04:01:57.144Z,99046.09
2019-01-29T04:04:28.478Z,99041.41
2019-01-29T04:06:59.616Z,99041.30
2019-01-29T04:09:30.722Z,99044.36
2019-01-29T04:12:01.887Z,99050.93
2019-01-29T04:14:33.079Z,99059.86
2019-01-29T04:17:04.219Z,99056.01
2019-01-29T04:19:35.327Z,99060.95
2019-01-29T04:22:06.320Z,99054.27
2019-01-29T04:24:37.831Z,99058.22
2019-01-29T04:27:09.022Z,99064.81
2019-01-29T04:29:40.778Z,99066.77
2019-01-29T04:32:12.147Z,99063.08
2019-01-29T04:34:45.491Z,99070.26
2019-01-29T04:37:16.628Z,99073.17
2019-01-29T04:39:48.152Z,99081.03
2019-01-29T04:42:19.454Z,99076.84
2019-01-29T04:44:50.841Z,99079.42
2019-01-29T04:47:22.953Z,99079.02
2019-01-29T04:49:54.644Z,99075.85
2019-01-29T04:52:25.961Z,99083.54
2019-01-29T04:54:57.014Z,99084.66
2019-01-29T04:57:28.046Z,99082.53
2019-01-29T04:59:59.671Z,99084.53
2019-01-29T05:02:30.815Z,99084.53
2019-01-29T05:05:01.916Z,99085.70
2019-01-29T05:07:33.320Z,99079.18
2019-01-29T05:10:05.232Z,99075.12
2019-01-29T05:12:36.477Z,99082.26
2019-01-29T05:15:10.563Z,99076.78
2019-01-29T05:17:41.857Z,99079.02
2019-01-29T05:20:15.361Z,99076.13
2019-01-29T05:22:46.503Z,99081.30
2019-01-29T05:25:17.706Z,99082.26
2019-01-29T05:27:50.130Z,99080.41
2019-01-29T05:30:23.378Z,99079.34
2019-01-29T05:32:54.734Z,99078.67
2019-01-29T05:35:25.844Z,99081.14
2019-01-29T05:37:57.048Z,99076.23
2019-01-29T05:40:28.170Z,99077.90
2019-01-29T05:42:59.204Z,99085.05
2019-01-29T05:45:30.724Z,99081.58
2019-01-29T05:48:02.073Z,99081.41
2019-01-29T05:50:33.326Z,99082.48
2019-01-29T05:53:04.695Z,99080.97
2019-01-29T05:55:35.748Z,99084.31
2019-01-29T05:58:07.272Z,99084.55
2019-01-29T06:00:40.864Z,99082.86
2019-01-29T06:03:11.953Z,99088.50
2019-01-29T06:05:43.101Z,99081.75
2019-01-29T06:08:14.137Z,99078.58
2019-01-29T06:10:45.004Z,99081.14
2019-01-29T06:13:15.983Z,99081.98
2019-01-29T06:15:47.579Z,99080.08
2019-01-29T06:18:18.827Z,99089.70
2019-01-29T06:20:49.937Z,99087.37
2019-01-29T06:23:21.004Z,99081.41
2019-01-29T06:25:51.984Z,99081.06
2019-01-29T06:28:23.192Z,99084.74
2019-01-29T06:30:56.661Z,99080.84
2019-01-29T06:33:26.659Z,99087.92
2019-01-29T06:35:57.711Z,99090.48
2019-01-29T06:38:28.557Z,99088.23
2019-01-29T06:40:59.433Z,99088.63
2019-01-29T06:43:30.332Z,99096.31
2019-01-29T06:46:01.140Z,99091.83
2019-01-29T06:48:32.004Z,99100.41
2019-01-29T06:51:03.239Z,99101.14
2019-01-29T06:53:34.433Z,99100.79
2019-01-29T06:56:05.528Z,99105.07
2019-01-29T06:58:36.719Z,99109.38
2019-01-29T07:01:07.597Z,99111.80
2019-01-29T07:03:38.422Z,99108.04
2019-01-29T07:06:09.645Z,99117.76
2019-01-29T07:08:40.547Z,99113.84
2019-01-29T07:11:11.411Z,99115.88
2019-01-29T07:13:42.420Z,99114.73
2019-01-29T07:16:31.025Z,99114.50
2019-01-29T07:19:05.761Z,99115.48
2019-01-29T07:21:36.802Z,99120.53
2019-01-29T07:24:07.860Z,99122.17
2019-01-29T07:26:39.800Z,99119.27
2019-01-29T07:29:10.994Z,99124.53
2019-01-29T07:31:42.284Z,99124.91
2019-01-29T07:34:13.540Z,99123.93
2019-01-29T07:36:44.851Z,99128.36
2019-01-29T07:39:16.025Z,99131.05
2019-01-29T07:41:47.476Z,99129.32
2019-01-29T07:44:18.348Z,99123.73
2019-01-29T07:46:49.871Z,99131.41
2019-01-29T07:49:20.768Z,99138.18
2019-01-29T07:51:52.053Z,99143.14
2019-01-29T07:54:23.360Z,99145.39
2019-01-29T07:56:54.213Z,99146.89
2019-01-29T07:59:32.439Z,99145.13
2019-01-29T08:01:57.650Z,99143.01
2019-01-29T08:04:28.699Z,99150.86
2019-01-29T08:06:59.569Z,99147.69
2019-01-29T08:09:30.677Z,99149.77
2019-01-29T08:12:01.882Z,99150.54
2019-01-29T08:14:33.181Z,99153.81
2019-01-29T08:17:05.453Z,99152.16
2019-01-29T08:19:36.672Z,99155.28
2019-01-29T08:22:07.802Z,99146.30
2019-01-29T08:24:39.194Z,99152.55
2019-01-29T08:27:10.333Z,99150.70
2019-01-29T08:29:41.406Z,99157.72
2019-01-29T08:32:12.520Z,99162.45
2019-01-29T08:34:43.558Z,99157.11
2019-01-29T08:37:14.489Z,99156.50
2019-01-29T08:39:45.699Z,99162.23
2019-01-29T08:42:16.566Z,99161.97
2019-01-29T08:44:47.424Z,99157.78
2019-01-29T08:47:18.373Z,99157.52
2019-01-29T08:49:49.151Z,99149.21
2019-01-29T08:52:20.186Z,99154.95
2019-01-29T08:54:50.961Z,99150.78
2019-01-29T08:57:22.321Z,99151.16
2019-01-29T08:59:53.641Z,99149.76
2019-01-29T09:02:24.516Z,99144.86
2019-01-29T09:04:56.260Z,99142.63
2019-01-29T09:07:27.365Z,99139.67
2019-01-29T09:09:58.435Z,99143.80
2019-01-29T09:12:29.564Z,99145.97
2019-01-29T09:15:00.968Z,99140.73
2019-01-29T09:17:32.076Z,99135.27
2019-01-29T09:20:03.309Z,99131.91
2019-01-29T09:22:34.456Z,99127.62
2019-01-29T09:25:06.416Z,99118.19
2019-01-29T09:27:37.525Z,99114.72
2019-01-29T09:30:11.188Z,99115.31
2019-01-29T09:32:42.053Z,99112.74
2019-01-29T09:35:13.054Z,99105.80
2019-01-29T09:37:44.157Z,99097.41
2019-01-29T09:40:16.990Z,99096.20
2019-01-29T09:42:48.000Z,99100.05
2019-01-29T09:45:19.937Z,99099.05
2019-01-29T09:47:51.176Z,99096.86
2019-01-29T09:50:23.124Z,99095.44
2019-01-29T09:52:54.566Z,99099.53
2019-01-29T09:55:29.564Z,99096.78
2019-01-29T09:57:58.709Z,99094.70
2019-01-29T10:00:31.695Z,99093.77
2019-01-29T10:03:02.638Z,99084.81
2019-01-29T10:05:34.086Z,99094.14
2019-01-29T10:08:06.111Z,99091.23
2019-01-29T10:10:36.950Z,99086.12
2019-01-29T10:13:07.818Z,99091.95
2019-01-29T10:15:38.747Z,99089.86
2019-01-29T10:18:09.843Z,99082.08
2019-01-29T10:20:40.746Z,99081.75
2019-01-29T10:23:11.537Z,99079.71
2019-01-29T10:25:43.349Z,99073.50
2019-01-29T10:28:14.215Z,99074.45
2019-01-29T10:30:45.289Z,99078.67
2019-01-29T10:33:16.855Z,99067.09
2019-01-29T10:35:47.832Z,99065.09
2019-01-29T10:38:18.905Z,99061.31
2019-01-29T10:40:49.984Z,99057.38
2019-01-29T10:43:21.099Z,99052.43
2019-01-29T10:45:52.017Z,99050.66
2019-01-29T10:48:22.812Z,99045.44
2019-01-29T10:50:53.759Z,99044.16
2019-01-29T10:53:24.550Z,99039.66
2019-01-29T10:55:55.800Z,99033.30
2019-01-29T10:58:26.957Z,99029.19
2019-01-29T11:00:57.891Z,99031.11
2019-01-29T11:03:28.943Z,99020.83
2019-01-29T11:06:00.020Z,99020.45
2019-01-29T11:08:31.122Z,99014.40
2019-01-29T11:11:02.195Z,99008.43
2019-01-29T11:13:33.242Z,98998.77
2019-01-29T11:16:04.423Z,98989.91
2019-01-29T11:18:35.360Z,98989.25
2019-01-29T11:21:06.287Z,98982.60
2019-01-29T11:23:37.192Z,98977.39
2019-01-29T11:26:08.406Z,98971.01
2019-01-29T11:28:39.287Z,98967.10
2019-01-29T11:31:10.295Z,98966.61
2019-01-29T11:33:41.193Z,98963.12
2019-01-29T11:36:11.989Z,98963.12
2019-01-29T11:38:42.866Z,98958.54
2019-01-29T11:41:14.301Z,98966.11
2019-01-29T11:43:45.174Z,98948.44
2019-01-29T11:46:16.086Z,98951.69
2019-01-29T11:48:46.955Z,98939.49
2019-01-29T11:51:17.815Z,98940.34
2019-01-29T11:53:48.690Z,98937.06
2019-01-29T11:56:19.945Z,98931.06
2019-01-29T11:58:50.812Z,98920.17
2019-01-29T12:01:24.317Z,98919.25
2019-01-29T12:03:55.661Z,98914.39
2019-01-29T12:06:26.512Z,98911.36
2019-01-29T12:08:57.382Z,98910.19
2019-01-29T12:11:28.456Z,98904.47
2019-01-29T12:13:59.255Z,98907.58
2019-01-29T12:16:30.270Z,98907.87
2019-01-29T12:19:01.292Z,98902.34
2019-01-29T12:21:32.718Z,98898.66
2019-01-29T12:24:03.661Z,98898.66
2019-01-29T12:26:34.647Z,98893.38
2019-01-29T12:29:06.027Z,98887.52
2019-01-29T12:31:37.376Z,98886.69
2019-01-29T12:34:08.168Z,98878.55
2019-01-29T12:36:39.014Z,98879.75
2019-01-29T12:39:10.173Z,98882.98
2019-01-29T12:41:41.144Z,98874.73
2019-01-29T12:44:12.312Z,98866.70
2019-01-29T12:46:43.151Z,98857.44
2019-01-29T12:49:14.252Z,98854.75
2019-01-29T12:52:06.922Z,98848.67
2019-01-29T12:54:38.093Z,98847.08
2019-01-29T12:57:09.190Z,98836.06
2019-01-29T12:59:40.293Z,98841.08
2019-01-29T13:02:11.324Z,98845.56
2019-01-29T13:04:42.262Z,98835.87
2019-01-29T13:07:13.175Z,98831.38
2019-01-29T13:09:44.146Z,98828.55
2019-01-29T13:12:15.192Z,98826.30
2019-01-29T13:14:46.217Z,98817.80
2019-01-29T13:17:17.089Z,98812.34
2019-01-29T13:19:47.952Z,98812.94
2019-01-29T13:22:18.798Z,98809.56
2019-01-29T13:24:49.891Z,98800.31
2019-01-29T13:27:20.916Z,98801.80
2019-01-29T13:29:52.113Z,98800.48
2019-01-29T13:32:23.117Z,98792.11
2019-01-29T13:34:53.907Z,98790.47
2019-01-29T13:37:24.780Z,98791.52
2019-01-29T13:39:55.876Z,98785.09
2019-01-29T13:42:26.718Z,98783.25
2019-01-29T13:44:57.784Z,98782.81
2019-01-29T13:47:28.620Z,98771.97
2019-01-29T13:49:59.758Z,98773.13
2019-01-29T13:52:30.800Z,98775.08
2019-01-29T13:55:01.595Z,98776.59
2019-01-29T13:57:32.511Z,98772.13
2019-01-29T14:00:03.816Z,98767.55
2019-01-29T14:02:34.777Z,98762.39
2019-01-29T14:05:05.862Z,98755.53
2019-01-29T14:07:36.775Z,98754.02
2019-01-29T14:10:08.254Z,98753.34
2019-01-29T14:12:39.396Z,98744.74
2019-01-29T14:15:13.770Z,98728.84
2019-01-29T14:17:47.211Z,98728.07
2019-01-29T14:20:18.216Z,98721.27
2019-01-29T14:22:49.628Z,98718.05
2019-01-29T14:25:20.423Z,98721.64
2019-01-29T14:27:51.560Z,98721.22
2019-01-29T14:30:22.569Z,98715.06
2019-01-29T14:32:53.744Z,98716.69
2019-01-29T14:35:24.606Z,98708.88
2019-01-29T14:38:49.343Z,98707.73
2019-01-29T14:41:21.851Z,98710.55
2019-01-29T14:43:58.013Z,98702.18
2019-01-29T14:46:28.837Z,98695.32
2019-01-29T14:48:59.915Z,98689.78
2019-01-29T14:51:31.007Z,98691.49
2019-01-29T14:54:02.210Z,98688.86
2019-01-29T14:56:33.258Z,98681.72
2019-01-29T14:59:04.246Z,98678.66
2019-01-29T15:01:35.406Z,98675.04
2019-01-29T15:04:06.272Z,98669.06
2019-01-29T15:06:37.136Z,98669.77
2019-01-29T15:09:10.735Z,98660.27
2019-01-29T15:11:41.575Z,98661.28
2019-01-29T15:14:13.317Z,98661.92
2019-01-29T15:17:21.165Z,98658.41
2019-01-29T15:19:52.421Z,98653.63
2019-01-29T15:22:23.587Z,98647.66
2019-01-29T15:24:54.357Z,98648.76
2019-01-29T15:27:25.376Z,98637.48
2019-01-29T15:29:56.210Z,98642.84
2019-01-29T15:32:27.087Z,98634.20
2019-01-29T15:34:58.263Z,98634.33
2019-01-29T15:37:29.125Z,98626.61
2019-01-29T15:39:59.893Z,98631.45
2019-01-29T15:42:30.768Z,98625.11
2019-01-29T15:45:01.548Z,98622.55
2019-01-29T15:47:32.868Z,98627.55
2019-01-29T15:50:04.429Z,98627.96
2019-01-29T15:52:35.236Z,98623.40
2019-01-29T15:55:07.796Z,98620.87
2019-01-29T15:57:38.888Z,98614.91
2019-01-29T16:00:14.172Z,98613.13
2019-01-29T16:02:45.114Z,98615.63
2019-01-29T16:05:18.641Z,98608.86
2019-01-29T16:07:49.406Z,98610.44
2019-01-29T16:10:23.250Z,98598.72
2019-01-29T16:12:54.479Z,98597.02
2019-01-29T16:15:25.745Z,98593.95
2019-01-29T16:17:56.970Z,98589.31
2019-01-29T16:20:27.830Z,98593.03
2019-01-29T16:22:58.706Z,98581.72
2019-01-29T16:25:29.676Z,98577.54
2019-01-29T16:28:01.106Z,98576.45
2019-01-29T16:30:32.240Z,98576.70
2019-01-29T16:33:03.119Z,98567.84
2019-01-29T16:35:34.175Z,98564.66
2019-01-29T16:38:05.382Z,98565.02
2019-01-29T16:40:36.939Z,98557.87
2019-01-29T16:43:08.045Z,98557.52
2019-01-29T16:45:39.486Z,98560.48
2019-01-29T16:48:10.567Z,98555.55
2019-01-29T16:50:42.068Z,98549.27
2019-01-29T16:53:12.958Z,98548.72
2019-01-29T16:55:43.817Z,98543.35
2019-01-29T16:58:14.934Z,98544.45
2019-01-29T17:00:45.886Z,98533.95
2019-01-29T17:03:17.058Z,98531.77
2019-01-29T17:05:48.161Z,98522.72
2019-01-29T17:08:19.352Z,98516.70
2019-01-29T17:10:50.458Z,98504.86
2019-01-29T17:13:21.702Z,98505.69
2019-01-29T17:15:52.579Z,98503.33
2019-01-29T17:18:23.452Z,98497.52
2019-01-29T17:20:54.554Z,98493.03
2019-01-29T17:23:25.429Z,98485.09
2019-01-29T17:25:56.356Z,98487.47
2019-01-29T17:28:27.225Z,98480.55
2019-01-29T17:30:59.610Z,98473.77
2019-01-29T17:33:30.893Z,98469.92
2019-01-29T17:36:02.108Z,98466.38
2019-01-29T17:38:32.917Z,98467.28
2019-01-29T17:41:03.709Z,98458.70
2019-01-29T17:43:34.808Z,98452.30
2019-01-29T17:46:05.689Z,98454.03
2019-01-29T17:48:36.500Z,98446.09
2019-01-29T17:51:07.363Z,98440.59
2019-01-29T17:53:38.473Z,98437.58
2019-01-29T17:56:09.328Z,98432.64
2019-01-29T17:58:40.556Z,98426.39
2019-01-29T18:01:12.542Z,98424.02
2019-01-29T18:03:43.631Z,98420.82
2019-01-29T18:06:14.501Z,98417.09
2019-01-29T18:08:49.799Z,98407.58
2019-01-29T18:11:18.211Z,98407.58
2019-01-29T18:13:49.487Z,98401.29
2019-01-29T18:16:20.434Z,98399.94
2019-01-29T18:18:51.543Z,98397.27
2019-01-29T18:21:22.631Z,98388.13
2019-01-29T18:23:53.648Z,98378.07
2019-01-29T18:26:24.772Z,98379.46
2019-01-29T18:28:55.973Z,98371.97
2019-01-29T18:31:27.183Z,98374.42
2019-01-29T18:33:58.047Z,98376.34
2019-01-29T18:36:28.842Z,98366.30
2019-01-29T18:38:59.690Z,98361.55
2019-01-29T18:41:30.749Z,98353.16
2019-01-29T18:44:01.794Z,98349.85
2019-01-29T18:46:32.896Z,98334.61
2019-01-29T18:49:04.080Z,98343.83
2019-01-29T18:51:35.368Z,98341.73
2019-01-29T18:54:07.820Z,98346.05
2019-01-29T18:56:38.905Z,98344.58
2019-01-29T18:59:10.006Z,98340.55
2019-01-29T19:01:41.072Z,98340.18
2019-01-29T19:04:12.016Z,98339.65
2019-01-29T19:06:42.865Z,98329.42
2019-01-29T19:09:13.740Z,98332.69
2019-01-29T19:11:44.831Z,98327.02
2019-01-29T19:14:15.926Z,98321.55
2019-01-29T19:16:46.883Z,98317.45
2019-01-29T19:19:17.985Z,98309.86
2019-01-29T19:21:49.163Z,98310.05
2019-01-29T19:24:20.193Z,98310.05
2019-01-29T19:26:51.195Z,98302.91
2019-01-29T19:29:22.167Z,98303.84
2019-01-29T19:31:53.003Z,98303.28
2019-01-29T19:34:24.021Z,98303.66
2019-01-29T19:36:55.028Z,98293.87
2019-01-29T19:39:26.283Z,98286.66
2019-01-29T19:41:57.292Z,98282.55
2019-01-29T19:44:28.238Z,98279.55
2019-01-29T19:46:59.017Z,98283.91
2019-01-29T19:49:30.136Z,98277.89
2019-01-29T19:52:01.418Z,98275.70
2019-01-29T19:54:32.233Z,98270.59
2019-01-29T19:57:03.080Z,98265.48
2019-01-29T19:59:34.193Z,98255.97
2019-01-29T20:02:05.528Z,98253.07
2019-01-29T20:04:36.876Z,98248.60
2019-01-29T20:07:07.819Z,98234.80
2019-01-29T20:09:38.942Z,98233.52
2019-01-29T20:12:09.836Z,98234.61
2019-01-29T20:14:40.656Z,98224.30
2019-01-29T20:17:11.423Z,98221.63
2019-01-29T20:19:42.222Z,98211.21
2019-01-29T20:22:13.382Z,98220.42
2019-01-29T20:24:44.481Z,98214.87
2019-01-29T20:27:15.333Z,98213.05
2019-01-29T20:29:46.560Z,98211.59
2019-01-29T20:32:17.995Z,98203.73
2019-01-29T20:34:49.137Z,98201.56
2019-01-29T20:37:20.552Z,98197.34
2019-01-29T20:39:51.410Z,98201.73
2019-01-29T20:42:22.501Z,98195.98
2019-01-29T20:44:53.343Z,98197.71
2019-01-29T20:47:24.146Z,98193.77
2019-01-29T20:49:55.377Z,98195.67
2019-01-29T20:52:26.146Z,98183.83
2019-01-29T20:54:57.238Z,98186.92
2019-01-29T20:57:28.022Z,98192.13
2019-01-29T20:59:58.816Z,98183.45
2019-01-29T21:02:29.656Z,98183.64
2019-01-29T21:05:00.508Z,98174.88
2019-01-29T21:07:32.537Z,98174.32
2019-01-29T21:10:03.454Z,98171.23
2019-01-29T21:12:34.290Z,98173.79
2019-01-29T21:15:07.005Z,98168.48
2019-01-29T21:17:38.093Z,98156.84
2019-01-29T21:20:12.023Z,98159.40
2019-01-29T21:22:43.101Z,98156.92
2019-01-29T21:25:14.593Z,98149.99
2019-01-29T21:27:45.502Z,98143.80
2019-01-29T21:30:45.820Z,98138.09
2019-01-29T21:33:16.834Z,98130.78
2019-01-29T21:35:47.920Z,98128.88
2019-01-29T21:38:18.758Z,98135.62
2019-01-29T21:40:49.613Z,98125.16
2019-01-29T21:43:20.719Z,98129.36
2019-01-29T21:45:51.903Z,98128.66
2019-01-29T21:48:22.735Z,98112.34
2019-01-29T21:50:53.609Z,98118.22
2019-01-29T21:53:24.602Z,98116.39
2019-01-29T21:55:55.930Z,98114.23
2019-01-29T21:58:26.792Z,98101.32
2019-01-29T22:00:57.933Z,98104.20
2019-01-29T22:03:28.771Z,98093.23
2019-01-29T22:05:59.853Z,98089.95
2019-01-29T22:08:30.732Z,98089.05
2019-01-29T22:11:02.070Z,98086.16
2019-01-29T22:13:32.939Z,98078.38
2019-01-29T22:16:03.764Z,98063.03
2019-01-29T22:18:34.528Z,98072.44
2019-01-29T22:21:05.656Z,98063.34
2019-01-29T22:23:36.732Z,98058.82
2019-01-29T22:26:08.000Z,98052.59
2019-01-29T22:28:39.367Z,98047.77
2019-01-29T22:31:11.220Z,98039.64
2019-01-29T22:33:42.133Z,98037.41
2019-01-29T22:36:13.161Z,98027.72
2019-01-29T22:38:43.948Z,98024.88
2019-01-29T22:41:15.120Z,98020.27
2019-01-29T22:43:46.207Z,98016.63
2019-01-29T22:46:20.857Z,98003.46
2019-01-29T22:48:51.861Z,98006.80
2019-01-29T22:51:23.023Z,98004.48
2019-01-29T22:53:54.131Z,97997.59
2019-01-29T22:56:25.280Z,97992.31
2019-01-29T22:58:56.286Z,97990.54
2019-01-29T23:01:38.410Z,97988.89
2019-01-29T23:04:17.405Z,97976.94
2019-01-29T23:07:15.774Z,97972.02
2019-01-29T23:09:46.626Z,97963.81
2019-01-29T23:12:17.492Z,97962.61
2019-01-29T23:14:48.667Z,97950.32
2019-01-29T23:17:19.564Z,97944.88
2019-01-29T23:19:50.375Z,97937.03
2019-01-29T23:22:21.378Z,97938.30
2019-01-29T23:24:52.569Z,97930.38
2019-01-29T23:27:25.375Z,97923.98
2019-01-29T23:29:56.159Z,97918.59
2019-01-29T23:32:27.149Z,97918.55
2019-01-29T23:34:58.227Z,97906.30
2019-01-29T23:37:29.004Z,97913.23
2019-01-29T23:39:59.772Z,97904.03
2019-01-29T23:42:31.027Z,97893.91
2019-01-29T23:45:02.068Z,97890.82
2019-01-29T23:47:32.923Z,97882.45
2019-01-29T23:50:04.523Z,97875.59
2019-01-29T23:52:35.604Z,97883.27
2019-01-29T23:55:07.050Z,97871.12
2019-01-29T23:57:38.138Z,97868.66
